createdAt,value
2023-05-05T00:03:05.305Z,63.69
2023-05-05T00:07:03.250Z,63.20
2023-05-05T00:11:02.325Z,64.10
2023-05-05T00:15:00.249Z,65.33
2023-05-05T00:18:59.262Z,66.09
2023-05-05T00:22:57.185Z,67.85
2023-05-05T00:26:55.236Z,67.38
2023-05-05T00:30:54.203Z,66.80
2023-05-05T00:34:52.224Z,66.80
2023-05-05T00:38:50.190Z,66.93
2023-05-05T00:42:59.197Z,67.56
2023-05-05T00:46:58.187Z,67.96
2023-05-05T00:50:58.214Z,67.94
2023-05-05T00:54:56.187Z,68.91
2023-05-05T00:58:57.199Z,68.52
2023-05-05T01:02:55.324Z,68.25
2023-05-05T01:07:02.239Z,68.10
2023-05-05T01:11:07.150Z,68.12
2023-05-05T01:15:19.264Z,67.66
2023-05-05T01:19:52.136Z,68.97
2023-05-05T01:23:56.177Z,68.03
2023-05-05T01:28:03.232Z,67.94
2023-05-05T01:32:05.163Z,67.91
2023-05-05T01:36:08.142Z,70.05
2023-05-05T01:40:10.189Z,69.10
2023-05-05T01:44:10.130Z,70.46
2023-05-05T01:48:12.121Z,69.69
2023-05-05T01:52:11.106Z,70.12
2023-05-05T01:56:09.147Z,69.52
2023-05-05T02:00:08.342Z,70.45
2023-05-05T02:04:09.218Z,72.97
2023-05-05T02:08:11.092Z,73.25
2023-05-05T02:12:11.130Z,71.59
2023-05-05T02:16:10.127Z,71.27
2023-05-05T02:20:09.222Z,71.60
2023-05-05T02:24:07.081Z,72.11
2023-05-05T02:28:09.119Z,71.59
2023-05-05T02:32:14.022Z,71.55
2023-05-05T02:40:30.080Z,73.22
2023-05-05T02:44:31.063Z,74.19
2023-05-05T02:48:29.121Z,74.68
2023-05-05T02:52:27.037Z,73.44
2023-05-05T02:56:37.018Z,72.78
2023-05-05T03:00:56.061Z,72.96
2023-05-05T03:04:57.011Z,73.28
2023-05-05T03:09:11.034Z,72.69
2023-05-05T03:13:00.908Z,73.17
2023-05-05T03:16:33.735Z,73.12
2023-05-05T03:19:58.404Z,73.06
2023-05-05T03:23:23.008Z,73.29
2023-05-05T03:26:51.260Z,73.30
2023-05-05T03:30:20.275Z,73.61
2023-05-05T03:33:46.302Z,73.33
2023-05-05T03:37:10.482Z,72.92
2023-05-05T03:40:43.788Z,72.43
2023-05-05T03:44:09.745Z,72.15
2023-05-05T03:47:34.255Z,71.58
2023-05-05T03:50:58.260Z,71.23
2023-05-05T03:54:22.577Z,70.73
2023-05-05T03:57:46.689Z,70.26
2023-05-05T04:01:10.523Z,69.65
2023-05-05T04:04:34.569Z,68.86
2023-05-05T04:07:58.780Z,68.69
2023-05-05T04:11:22.750Z,67.41
2023-05-05T04:14:46.929Z,67.17
2023-05-05T04:18:11.082Z,66.73
2023-05-05T04:21:36.249Z,67.66
2023-05-05T04:25:01.365Z,65.31
2023-05-05T04:28:26.253Z,61.05
2023-05-05T04:31:50.743Z,56.97
2023-05-05T04:35:14.685Z,54.88
2023-05-05T04:38:39.702Z,51.75
2023-05-05T04:42:03.766Z,47.91
2023-05-05T04:45:27.723Z,44.61
2023-05-05T04:48:51.942Z,42.27
2023-05-05T04:52:15.856Z,39.12
2023-05-05T04:55:42.979Z,39.58
2023-05-05T04:59:07.658Z,40.79
2023-05-05T05:02:32.749Z,40.83
2023-05-05T05:05:56.687Z,40.13
2023-05-05T05:09:20.639Z,40.87
2023-05-05T05:12:44.552Z,40.80
2023-05-05T05:16:08.754Z,41.13
2023-05-05T05:19:32.701Z,41.57
2023-05-05T05:22:57.455Z,41.86
2023-05-05T05:26:22.232Z,43.06
2023-05-05T05:29:46.710Z,42.93
2023-05-05T05:33:10.924Z,43.30
2023-05-05T05:36:35.348Z,43.67
2023-05-05T05:39:59.942Z,44.23
2023-05-05T05:43:26.195Z,44.17
2023-05-05T05:46:50.376Z,44.73
2023-05-05T05:50:14.709Z,44.65
2023-05-05T05:53:39.128Z,44.73
2023-05-05T05:57:04.382Z,45.48
2023-05-05T06:00:28.454Z,46.11
2023-05-05T06:03:56.288Z,46.78
2023-05-05T06:07:20.794Z,46.61
2023-05-05T06:10:47.126Z,46.90
2023-05-05T06:14:24.707Z,47.54
2023-05-05T06:20:50.926Z,47.97
2023-05-05T06:24:15.033Z,49.13
2023-05-05T06:27:39.035Z,50.01
2023-05-05T06:31:02.802Z,49.63
2023-05-05T06:34:27.063Z,48.49
2023-05-05T06:37:50.817Z,47.88
2023-05-05T06:41:14.754Z,47.93
2023-05-05T06:44:38.794Z,48.35
2023-05-05T06:48:02.804Z,47.94
2023-05-05T06:51:27.768Z,46.03
2023-05-05T06:54:51.589Z,46.52
2023-05-05T06:58:15.332Z,46.52
2023-05-05T07:01:39.295Z,47.15
2023-05-05T07:05:03.205Z,46.85
2023-05-05T07:08:27.052Z,47.17
2023-05-05T07:11:50.948Z,47.05
2023-05-05T07:15:26.835Z,46.81
2023-05-05T07:18:52.347Z,45.61
2023-05-05T07:22:16.152Z,47.18
2023-05-05T07:25:40.215Z,48.20
2023-05-05T07:29:04.582Z,48.09
2023-05-05T07:32:28.841Z,49.03
2023-05-05T07:35:52.672Z,48.53
2023-05-05T07:39:16.512Z,43.57
2023-05-05T07:42:40.407Z,40.00
2023-05-05T07:46:04.694Z,37.77
2023-05-05T07:49:28.670Z,35.25
2023-05-05T07:56:18.399Z,38.58
2023-05-05T07:59:44.100Z,36.83
2023-05-05T08:03:11.334Z,35.47
2023-05-05T08:06:36.206Z,35.74
2023-05-05T08:10:00.038Z,37.64
2023-05-05T08:13:23.880Z,38.30
2023-05-05T08:16:47.750Z,38.42
2023-05-05T08:20:11.868Z,39.08
2023-05-05T08:23:36.732Z,39.00
2023-05-05T08:27:00.810Z,38.55
2023-05-05T08:30:24.617Z,38.79
2023-05-05T08:33:48.494Z,38.78
2023-05-05T08:37:12.402Z,38.15
2023-05-05T08:40:39.281Z,37.83
2023-05-05T08:44:03.416Z,38.19
2023-05-05T08:47:27.684Z,37.26
2023-05-05T08:51:00.362Z,37.32
2023-05-05T08:54:31.254Z,37.29
2023-05-05T08:58:01.249Z,36.85
2023-05-05T09:01:25.090Z,37.02
2023-05-05T09:04:48.952Z,37.25
2023-05-05T09:08:13.013Z,35.63
2023-05-05T09:11:38.596Z,35.41
2023-05-05T09:15:03.672Z,36.74
2023-05-05T09:18:28.054Z,37.35
2023-05-05T09:21:52.090Z,35.63
2023-05-05T09:25:18.138Z,36.00
2023-05-05T09:28:52.833Z,36.47
2023-05-05T09:32:19.335Z,36.68
2023-05-05T09:35:54.126Z,36.50
2023-05-05T09:39:19.934Z,36.06
2023-05-05T09:42:44.718Z,35.21
2023-05-05T09:46:09.624Z,35.88
2023-05-05T09:49:33.612Z,35.79
2023-05-05T09:53:01.707Z,36.45
2023-05-05T09:56:38.687Z,35.21
2023-05-05T10:00:04.563Z,34.78
2023-05-05T10:03:29.674Z,35.04
2023-05-05T10:06:53.758Z,35.44
2023-05-05T10:10:19.304Z,35.36
2023-05-05T10:13:43.619Z,35.50
2023-05-05T10:17:10.150Z,35.16
2023-05-05T10:20:34.528Z,35.41
2023-05-05T10:24:18.258Z,36.08
2023-05-05T10:27:48.578Z,35.97
2023-05-05T10:31:40.933Z,35.72
2023-05-05T10:35:09.845Z,37.02
2023-05-05T10:38:34.517Z,35.80
2023-05-05T10:42:02.964Z,34.66
2023-05-05T10:45:27.617Z,34.27
2023-05-05T10:49:11.752Z,34.62
2023-05-05T10:52:55.776Z,34.90
2023-05-05T10:56:27.429Z,34.81
2023-05-05T10:59:51.451Z,34.40
2023-05-05T11:03:18.374Z,33.82
2023-05-05T11:06:42.213Z,34.57
2023-05-05T11:10:08.653Z,34.33
2023-05-05T11:13:32.767Z,35.63
2023-05-05T11:16:56.760Z,35.18
2023-05-05T11:20:39.886Z,35.86
2023-05-05T11:24:28.212Z,36.89
2023-05-05T11:28:18.555Z,36.74
2023-05-05T11:31:42.411Z,37.22
2023-05-05T11:35:07.313Z,38.22
2023-05-05T11:38:37.363Z,37.77
2023-05-05T11:42:30.519Z,38.06
2023-05-05T11:46:17.499Z,37.84
2023-05-05T11:49:41.423Z,36.58
2023-05-05T11:53:05.731Z,36.46
2023-05-05T11:56:29.503Z,34.93
2023-05-05T11:59:58.926Z,35.09
2023-05-05T12:03:23.079Z,34.81
2023-05-05T12:06:49.028Z,35.40
2023-05-05T12:10:13.453Z,36.13
2023-05-05T12:13:37.279Z,35.81
2023-05-05T12:17:10.285Z,35.86
2023-05-05T12:20:35.173Z,36.87
2023-05-05T12:23:59.715Z,35.91
2023-05-05T12:27:24.115Z,35.63
2023-05-05T12:31:00.258Z,35.63
2023-05-05T12:34:25.064Z,35.53
2023-05-05T12:37:48.792Z,35.74
2023-05-05T12:41:19.067Z,36.70
2023-05-05T12:44:44.398Z,37.18
2023-05-05T12:48:23.654Z,37.03
2023-05-05T12:51:57.583Z,37.27
2023-05-05T12:55:21.539Z,37.92
2023-05-05T12:58:49.433Z,38.69
2023-05-05T13:02:13.254Z,38.05
2023-05-05T13:05:37.400Z,37.92
2023-05-05T13:09:01.207Z,37.58
2023-05-05T13:12:26.019Z,37.69
2023-05-05T13:15:49.929Z,37.47
2023-05-05T13:19:14.013Z,37.48
2023-05-05T13:22:38.127Z,37.13
2023-05-05T13:26:01.952Z,38.29
2023-05-05T13:29:30.403Z,37.11
2023-05-05T13:33:15.383Z,36.50
2023-05-05T13:37:13.380Z,35.68
2023-05-05T13:41:12.338Z,37.00
2023-05-05T13:45:10.601Z,36.67
2023-05-05T13:49:08.345Z,36.20
2023-05-05T13:53:06.387Z,36.45
2023-05-05T13:57:04.325Z,37.28
2023-05-05T14:01:02.373Z,37.80
2023-05-05T14:05:00.375Z,38.02
2023-05-05T14:08:58.345Z,38.16
2023-05-05T14:12:56.421Z,39.22
2023-05-05T14:16:54.350Z,39.88
2023-05-05T14:20:52.300Z,39.62
2023-05-05T14:24:52.383Z,39.55
2023-05-05T14:28:50.329Z,39.65
2023-05-05T14:32:48.399Z,41.09
2023-05-05T14:36:46.297Z,40.84
2023-05-05T14:40:44.353Z,40.38
2023-05-05T14:44:42.281Z,41.33
2023-05-05T14:48:40.342Z,40.43
2023-05-05T14:52:38.311Z,40.64
2023-05-05T14:56:36.294Z,40.82
2023-05-05T15:00:34.297Z,41.15
2023-05-05T15:04:32.324Z,39.76
2023-05-05T15:08:30.320Z,39.15
2023-05-05T15:12:28.354Z,39.18
2023-05-05T15:16:26.456Z,39.02
2023-05-05T15:20:24.377Z,39.54
2023-05-05T15:24:22.263Z,39.10
2023-05-05T15:28:20.297Z,39.28
2023-05-05T15:32:18.334Z,39.63
2023-05-05T15:36:16.352Z,40.73
2023-05-05T15:40:14.239Z,40.45
2023-05-05T15:44:12.299Z,40.00
2023-05-05T15:48:10.271Z,40.93
2023-05-05T15:52:08.218Z,41.92
2023-05-05T15:56:06.216Z,42.07
2023-05-05T16:00:08.254Z,42.69
2023-05-05T16:04:06.227Z,43.08
2023-05-05T16:08:04.264Z,42.45
2023-05-05T16:12:02.213Z,43.37
2023-05-05T16:16:00.211Z,43.69
2023-05-05T16:19:58.224Z,44.28
2023-05-05T16:23:56.206Z,45.06
2023-05-05T16:27:54.167Z,46.10
2023-05-05T16:32:25.256Z,46.86
2023-05-05T16:36:27.173Z,47.86
2023-05-05T16:40:25.215Z,48.68
2023-05-05T16:44:23.388Z,49.40
2023-05-05T16:48:21.204Z,49.93
2023-05-05T16:52:19.171Z,49.91
2023-05-05T16:56:17.250Z,49.92
2023-05-05T17:00:16.121Z,50.21
2023-05-05T17:04:14.165Z,51.31
2023-05-05T17:08:12.187Z,51.85
2023-05-05T17:12:11.349Z,52.08
2023-05-05T17:16:09.241Z,52.14
2023-05-05T17:20:07.115Z,52.07
2023-05-05T17:24:05.117Z,52.17
2023-05-05T17:28:03.201Z,52.36
2023-05-05T17:32:01.134Z,52.83
2023-05-05T17:35:59.166Z,53.32
2023-05-05T17:39:57.160Z,53.82
2023-05-05T17:43:55.186Z,54.02
2023-05-05T17:47:53.127Z,54.63
2023-05-05T17:51:51.130Z,55.50
2023-05-05T17:55:49.144Z,55.90
2023-05-05T17:59:47.136Z,56.25
2023-05-05T18:03:45.082Z,56.29
2023-05-05T18:07:43.110Z,56.35
2023-05-05T18:11:41.093Z,56.69
2023-05-05T18:15:39.134Z,57.40
2023-05-05T18:19:38.114Z,57.22
2023-05-05T18:23:36.123Z,57.64
2023-05-05T18:27:34.088Z,57.92
2023-05-05T18:31:32.146Z,58.36
2023-05-05T18:35:34.065Z,58.47
2023-05-05T18:39:32.101Z,58.97
2023-05-05T18:43:30.127Z,59.02
2023-05-05T18:47:28.198Z,59.61
2023-05-05T18:51:26.078Z,60.13
2023-05-05T18:55:24.069Z,60.16
2023-05-05T18:59:22.052Z,60.34
2023-05-05T19:03:20.053Z,60.76
2023-05-05T19:07:33.717Z,60.90
2023-05-05T19:11:33.061Z,61.09
2023-05-05T19:15:31.037Z,61.08
2023-05-05T19:19:29.046Z,61.40
2023-05-05T19:23:26.986Z,61.71
2023-05-05T19:27:25.047Z,62.15
2023-05-05T19:31:23.102Z,62.43
2023-05-05T19:35:21.001Z,62.62
2023-05-05T19:39:18.971Z,62.84
2023-05-05T19:43:17.031Z,62.76
2023-05-05T19:47:15.013Z,63.25
2023-05-05T19:51:13.056Z,63.26
2023-05-05T19:55:10.988Z,63.60
2023-05-05T19:59:14.081Z,63.83
2023-05-05T20:03:11.997Z,63.94
2023-05-05T20:07:09.949Z,64.03
2023-05-05T20:11:07.957Z,64.29
2023-05-05T20:15:05.943Z,64.52
2023-05-05T20:19:03.951Z,64.76
2023-05-05T20:23:02.969Z,64.25
2023-05-05T20:27:00.886Z,64.79
2023-05-05T20:30:59.011Z,64.68
2023-05-05T20:34:56.944Z,64.77
2023-05-05T20:38:58.947Z,65.17
2023-05-05T20:42:56.928Z,65.39
2023-05-05T20:46:54.938Z,65.67
2023-05-05T20:50:53.891Z,65.86
2023-05-05T20:54:51.952Z,66.08
2023-05-05T20:58:49.882Z,66.20
2023-05-05T21:02:48.085Z,66.50
2023-05-05T21:06:46.890Z,66.64
2023-05-05T21:10:44.930Z,66.94
2023-05-05T21:14:42.871Z,66.99
2023-05-05T21:18:40.888Z,67.27
2023-05-05T21:22:38.893Z,67.71
2023-05-05T21:26:36.842Z,68.02
2023-05-05T21:30:34.852Z,68.16
2023-05-05T21:34:32.933Z,68.47
2023-05-05T21:38:30.850Z,68.76
2023-05-05T21:42:28.874Z,69.02
2023-05-05T21:46:26.885Z,69.19
2023-05-05T21:50:24.874Z,69.53
2023-05-05T21:54:22.846Z,69.60
2023-05-05T21:58:52.903Z,69.70
2023-05-05T22:02:50.931Z,69.61
2023-05-05T22:06:48.846Z,69.76
2023-05-05T22:10:46.806Z,69.85
2023-05-05T22:14:44.814Z,69.76
2023-05-05T22:18:42.820Z,69.88
2023-05-05T22:22:40.883Z,69.78
2023-05-05T22:26:38.818Z,69.87
2023-05-05T22:30:36.784Z,70.04
2023-05-05T22:34:34.862Z,70.35
2023-05-05T22:38:32.777Z,70.66
2023-05-05T22:42:30.766Z,70.68
2023-05-05T22:46:28.827Z,70.68
2023-05-05T22:50:26.857Z,70.68
2023-05-05T22:54:24.773Z,70.83
2023-05-05T22:58:22.772Z,71.17
2023-05-05T23:02:20.906Z,71.26
2023-05-05T23:06:18.762Z,71.44
2023-05-05T23:10:16.754Z,71.74
2023-05-05T23:14:14.791Z,72.01
2023-05-05T23:18:12.772Z,71.87
2023-05-05T23:22:10.744Z,71.66
2023-05-05T23:26:08.728Z,71.71
2023-05-05T23:30:06.759Z,71.23
2023-05-05T23:34:04.747Z,70.86
2023-05-05T23:38:02.705Z,70.65
2023-05-05T23:42:00.724Z,70.22
2023-05-05T23:45:58.719Z,69.83
2023-05-05T23:49:56.701Z,69.79
2023-05-05T23:53:54.673Z,69.43
2023-05-05T23:57:52.710Z,69.47
